WetterOnline ( https://www.wetteronline.ch )

Wetter aktuell Steinhagen

Aktuelles Wetter: Bad Salzuflen (139m)

6-stündlich | Neueste Meldungen
Ortszeit Temperatur Wetter
Mo, 18.11. 19:00 3.2° C leichter Regen
Mo, 18.11. 13:00 4.7° C Sprühregen
Mo, 18.11. 7:00 4.4° C Nebel
Mo, 18.11. 1:00 4.1° C Regen
So, 17.11. 19:00 3.4° C leichter Regen
So, 17.11. 13:00 4.7° C bedeckt
So, 17.11. 7:00 0.3° C bedeckt
So, 17.11. 1:00 2.1° C wolkenlos
Ortszeit Temperatur Wetter
Mo, 18.11. 19:30 3.3° C leichter Regen
Mo, 18.11. 19:20 3.3° C leichter Regen
Mo, 18.11. 19:10 3.2° C leichter Regen
Mo, 18.11. 19:00 3.2° C leichter Regen
Mo, 18.11. 18:50 3.2° C leichter Regen
Mo, 18.11. 18:40 3.2° C Sprühregen
Mo, 18.11. 18:30 3.4° C leichter Regen
Mo, 18.11. 18:00 3.5° C leichter Regen
Mo, 18.11. 17:30 3.6° C Regen
Mo, 18.11. 17:00 4.1° C leichter Regen
Mo, 18.11. 16:30 4.4° C leichter Regen
Ortszeit Relative Feuchte Sichtweite
Mo, 18.11. 19:00 89% 50 km
Mo, 18.11. 13:00 96% 4.9 km
Mo, 18.11. 7:00 97% 0.2 km
Mo, 18.11. 1:00 97% 1.2 km
So, 17.11. 19:00 94% 3.1 km
So, 17.11. 13:00 86% 16 km
So, 17.11. 7:00 95% 3.0 km
So, 17.11. 1:00 85% 19 km
Ortszeit Relative Feuchte Sichtweite
Mo, 18.11. 19:30 91% 30 km
Mo, 18.11. 19:20 91% -
Mo, 18.11. 19:10 91% -
Mo, 18.11. 19:00 89% 50 km
Mo, 18.11. 18:50 89% -
Mo, 18.11. 18:40 90% -
Mo, 18.11. 18:30 92% 30 km
Mo, 18.11. 18:00 91% 25 km
Mo, 18.11. 17:30 89% 15 km
Mo, 18.11. 17:00 91% 18 km
Mo, 18.11. 16:30 92% 11 km
Ortszeit Niederschlagsmenge Niederschlagsart
Mo, 18.11. 19:00 7 l/m2 in 12 Std. Regen
Mo, 18.11. 13:00 0.2 l/m2 in 6 Std. Regen
Mo, 18.11. 7:00 2 l/m2 in 12 Std. Sprühregen
Mo, 18.11. 1:00 1 l/m2 in 6 Std. Regen
So, 17.11. 19:00 1 l/m2 in 12 Std. Regen
So, 17.11. 13:00 0.0 l/m2 in 6 Std. -
So, 17.11. 7:00 0.0 l/m2 in 12 Std. -
So, 17.11. 1:00 0.0 l/m2 in 6 Std. -
Ortszeit Niederschlagsmenge Niederschlagsart
Mo, 18.11. 19:30 0.1 l/m2 in 1 Std. -
Mo, 18.11. 19:20 keine Meldung -
Mo, 18.11. 19:10 keine Meldung -
Mo, 18.11. 19:00 0.2 l/m2 in 1 Std. Regen
Mo, 18.11. 18:50 keine Meldung -
Mo, 18.11. 18:40 keine Meldung -
Mo, 18.11. 18:30 0.2 l/m2 in 1 Std. -
Mo, 18.11. 18:00 2.1 l/m2 in 1 Std. Regen
Mo, 18.11. 17:30 1.3 l/m2 in 1 Std. -
Mo, 18.11. 17:00 1.9 l/m2 in 1 Std. Regen
Mo, 18.11. 16:30 1.0 l/m2 in 1 Std. -
Ortszeit Stärke Spitze Richtung
km/h Bft. km/h Grad Sektor
Mo, 18.11. 19:00 18 3 32 200° S
Mo, 18.11. 13:00 11 2 18 190° S
Mo, 18.11. 7:00 7 2 20 220° SW
Mo, 18.11. 1:00 9 2 39 30° NO
So, 17.11. 19:00 13 3 30 20° N
So, 17.11. 13:00 6 1 13 20° N
So, 17.11. 7:00 0 0 11 - -
So, 17.11. 1:00 4 1 18 130° SO
Ortszeit Stärke Spitze Richtung
km/h Bft. km/h Grad Sektor
Mo, 18.11. 19:30 15 3 30 190° S
Mo, 18.11. 19:20 15 3 - 190° S
Mo, 18.11. 19:10 14 3 - 190° S
Mo, 18.11. 19:00 18 3 32 200° S
Mo, 18.11. 18:50 18 3 - 200° S
Mo, 18.11. 18:40 15 3 - 200° S
Mo, 18.11. 18:30 14 3 29 200° S
Mo, 18.11. 18:00 15 3 28 200° S
Mo, 18.11. 17:30 14 3 25 200° S
Mo, 18.11. 17:00 13 3 30 190° S
Mo, 18.11. 16:30 15 3 26 200° S
Ortszeit Untergrenze Bedeckung Gattung
total tief tief mittel hoch
Mo, 18.11. 19:00 300 m 7/8 7/8 - - -
Mo, 18.11. 13:00 60 m 8/8 8/8 - - -
Mo, 18.11. 7:00 <30 m 8/8 0/8 - - -
Mo, 18.11. 1:00 60 m 8/8 8/8 - - -
So, 17.11. 19:00 210 m 7/8 7/8 - - -
So, 17.11. 13:00 3300 m 8/8 8/8 - - -
So, 17.11. 7:00 6300 m 8/8 8/8 - - -
So, 17.11. 1:00 - 0/8 0/8 - - -
Ortszeit Bedeckungsgrad in Achtel und Wolkenuntergrenze
Mo, 18.11. 19:30 7(300m) 8(480m)
Mo, 18.11. 19:20 7(300m) 8(480m)
Mo, 18.11. 19:10 6(300m) 8(510m)
Mo, 18.11. 19:00 5(300m) 7(510m)
Mo, 18.11. 18:50 5(300m) 7(510m)
Mo, 18.11. 18:40 7(270m) 7(540m)
Mo, 18.11. 18:30 6(300m) 7(420m) 7(540m)
Mo, 18.11. 18:00 1(360m) 7(660m) 7(1260m)
Mo, 18.11. 17:30 5(360m) 7(540m) 8(720m)
Mo, 18.11. 17:00 3(450m) 5(630m) 8(840m)
Mo, 18.11. 16:30 2(270m) 7(750m) 8(870m)
Ortszeit Luftdruck NN (hPa) Tendenz (hPa in 3 Std.)
Mo, 18.11. 19:00 1007 + 0,3
Mo, 18.11. 13:00 1006 + 0,1
Mo, 18.11. 7:00 1005 + 0,3
Mo, 18.11. 1:00 1005 - 1,5
So, 17.11. 19:00 1008 - 1,7
So, 17.11. 13:00 1012 - 2,1
So, 17.11. 7:00 1014 + 0,4
So, 17.11. 1:00 1014 + 0,7
Ortszeit Luftdruck NN (hPa) Tendenz (hPa in 3 Std.)
Mo, 18.11. 19:30 1007 + 0,1
Mo, 18.11. 19:20 1007 keine Meldung
Mo, 18.11. 19:10 1007 keine Meldung
Mo, 18.11. 19:00 1007 + 0,3
Mo, 18.11. 18:50 1007 keine Meldung
Mo, 18.11. 18:40 1007 keine Meldung
Mo, 18.11. 18:30 1007 + 0,4
Mo, 18.11. 18:00 1006 + 0,5
Mo, 18.11. 17:30 1007 + 0,7
Mo, 18.11. 17:00 1006 + 0,8
Mo, 18.11. 16:30 1006 + 0,6
Ortszeit Schneehöhe (cm)
Mo, 18.11. 19:00 0
Mo, 18.11. 13:00 0
Mo, 18.11. 7:00 0
Mo, 18.11. 1:00 0
So, 17.11. 19:00 0
So, 17.11. 13:00 0
So, 17.11. 7:00 0
So, 17.11. 1:00 0
Ortszeit Schneehöhe (cm)
Mo, 18.11. 19:30 0
Mo, 18.11. 19:20 0
Mo, 18.11. 19:10 0
Mo, 18.11. 19:00 0
Mo, 18.11. 18:50 0
Mo, 18.11. 18:40 0
Mo, 18.11. 18:30 0
Mo, 18.11. 18:00 0
Mo, 18.11. 17:30 0
Mo, 18.11. 17:00 0
Mo, 18.11. 16:30 0
Link zu dieser Seite / Seite empfehlen

Das Wetter in ...